createdAt,value
2022-12-11T00:03:27.373Z,12.50
2022-12-11T00:08:30.069Z,13.50
2022-12-11T00:13:32.792Z,11.52
2022-12-11T00:18:35.919Z,11.80
2022-12-11T00:23:39.161Z,11.82
2022-12-11T00:28:42.752Z,11.30
2022-12-11T00:33:46.042Z,11.77
2022-12-11T00:38:49.429Z,11.02
2022-12-11T00:43:52.207Z,11.60
2022-12-11T00:48:56.029Z,11.57
2022-12-11T00:53:58.580Z,11.70
2022-12-11T00:59:01.548Z,13.20
2022-12-11T01:04:04.229Z,11.45
2022-12-11T01:09:25.357Z,11.55
2022-12-11T01:14:28.257Z,11.52
2022-12-11T01:19:31.182Z,12.23
2022-12-11T01:24:33.946Z,11.90
2022-12-11T01:29:36.995Z,12.07
2022-12-11T01:34:39.852Z,11.57
2022-12-11T01:39:42.535Z,12.23
2022-12-11T01:44:45.208Z,11.95
2022-12-11T01:49:47.891Z,11.55
2022-12-11T01:54:51.661Z,11.50
2022-12-11T01:59:54.407Z,11.63
2022-12-11T02:04:57.361Z,10.95
2022-12-11T02:10:00.019Z,11.95
2022-12-11T02:15:14.858Z,11.32
2022-12-11T02:20:20.567Z,12.07
2022-12-11T02:25:29.933Z,11.52
2022-12-11T02:30:33.609Z,11.45
2022-12-11T02:35:41.537Z,12.55
2022-12-11T02:40:44.601Z,11.93
2022-12-11T02:45:48.363Z,10.82
2022-12-11T02:50:52.859Z,11.90
2022-12-11T02:56:04.812Z,11.10
2022-12-11T03:01:07.333Z,11.67
2022-12-11T03:06:12.107Z,12.25
2022-12-11T03:11:14.824Z,12.18
2022-12-11T03:16:37.494Z,12.20
2022-12-11T03:21:40.016Z,12.00
2022-12-11T03:26:45.527Z,11.38
2022-12-11T03:31:54.838Z,12.00
2022-12-11T03:36:58.244Z,11.85
2022-12-11T03:42:06.200Z,11.63
2022-12-11T03:47:09.875Z,12.57
2022-12-11T03:52:13.233Z,12.38
2022-12-11T03:57:17.054Z,12.20
2022-12-11T04:02:19.888Z,12.38
2022-12-11T04:07:22.968Z,12.35
2022-12-11T04:12:25.605Z,12.63
2022-12-11T04:17:47.920Z,12.35
2022-12-11T04:23:09.355Z,11.77
2022-12-11T04:28:11.836Z,12.25
2022-12-11T04:33:14.482Z,11.50
2022-12-11T04:38:16.985Z,12.75
2022-12-11T04:43:19.730Z,12.52
2022-12-11T04:48:22.213Z,12.15
2022-12-11T04:53:25.264Z,12.35
2022-12-11T04:58:28.189Z,11.77
2022-12-11T05:03:30.916Z,13.00
2022-12-11T05:08:34.698Z,11.60
2022-12-11T05:13:37.895Z,11.45
2022-12-11T05:18:40.600Z,12.43
2022-12-11T05:23:43.209Z,11.48
2022-12-11T05:28:45.737Z,28.45
2022-12-11T05:33:50.385Z,12.95
2022-12-11T05:38:53.389Z,16.58
2022-12-11T05:43:56.090Z,11.38
2022-12-11T05:49:00.201Z,11.80
2022-12-11T05:54:03.063Z,11.13
2022-12-11T05:59:06.226Z,11.10
2022-12-11T06:04:10.016Z,10.98
2022-12-11T06:09:16.245Z,11.02
2022-12-11T06:14:18.923Z,11.15
2022-12-11T06:19:21.827Z,10.00
2022-12-11T06:24:24.547Z,10.05
2022-12-11T06:29:27.322Z,10.13
2022-12-11T06:34:29.996Z,10.55
2022-12-11T06:39:32.675Z,10.23
2022-12-11T06:44:35.380Z,10.60
2022-12-11T06:49:37.960Z,9.27
2022-12-11T06:54:40.613Z,9.63
2022-12-11T06:59:43.366Z,9.70
2022-12-11T07:04:49.320Z,9.90
2022-12-11T07:09:56.354Z,9.13
2022-12-11T07:14:59.074Z,9.10
2022-12-11T07:20:01.872Z,9.00
2022-12-11T07:25:04.731Z,9.00
2022-12-11T07:30:07.716Z,9.07
2022-12-11T07:35:10.704Z,8.93
2022-12-11T07:40:14.093Z,9.48
2022-12-11T07:45:16.712Z,9.23
2022-12-11T07:50:19.378Z,8.73
2022-12-11T07:55:22.022Z,9.02
2022-12-11T08:00:24.737Z,9.93
2022-12-11T08:05:27.415Z,9.23
2022-12-11T08:10:30.268Z,8.98
2022-12-11T08:15:34.169Z,8.70
2022-12-11T08:20:38.036Z,8.30
2022-12-11T08:25:40.813Z,8.80
2022-12-11T08:30:43.903Z,8.60
2022-12-11T08:35:47.061Z,9.15
2022-12-11T08:40:49.994Z,8.50
2022-12-11T08:45:52.802Z,7.95
2022-12-11T08:50:55.539Z,8.55
2022-12-11T08:56:02.560Z,9.52
2022-12-11T09:01:09.764Z,8.77
2022-12-11T09:06:14.960Z,8.68
2022-12-11T09:11:19.919Z,8.90
2022-12-11T09:16:24.478Z,8.43
2022-12-11T09:21:28.720Z,8.35
2022-12-11T09:26:31.518Z,8.27
2022-12-11T09:31:36.285Z,8.45
2022-12-11T09:36:39.223Z,8.50
2022-12-11T09:41:54.244Z,8.57
2022-12-11T09:46:57.685Z,8.18
2022-12-11T09:52:06.643Z,8.50
2022-12-11T09:57:12.145Z,9.32
2022-12-11T10:02:20.752Z,8.85
2022-12-11T10:07:30.791Z,12.38
2022-12-11T10:12:33.916Z,9.68
2022-12-11T10:17:39.634Z,9.70
2022-12-11T10:22:42.171Z,9.45
2022-12-11T10:27:46.944Z,9.43
2022-12-11T10:32:54.682Z,9.10
2022-12-11T10:38:02.368Z,9.25
2022-12-11T10:43:05.172Z,9.88
2022-12-11T10:48:11.004Z,8.75
2022-12-11T10:53:20.972Z,8.82
2022-12-11T10:58:25.569Z,8.65
2022-12-11T11:03:28.531Z,9.07
2022-12-11T11:08:38.833Z,8.80
2022-12-11T11:13:41.559Z,9.45
2022-12-11T11:18:51.215Z,8.80
2022-12-11T11:23:54.682Z,16.05
2022-12-11T11:28:57.385Z,8.93
2022-12-11T11:34:08.091Z,10.10
2022-12-11T11:39:26.655Z,9.18
2022-12-11T11:44:34.901Z,8.68
2022-12-11T11:49:46.896Z,8.98
2022-12-11T11:54:53.441Z,11.53
2022-12-11T11:59:58.396Z,9.98
2022-12-11T12:05:02.320Z,10.10
2022-12-11T12:10:08.217Z,8.38
2022-12-11T12:15:29.842Z,9.32
2022-12-11T12:20:41.146Z,9.60
2022-12-11T12:25:43.813Z,9.18
2022-12-11T12:31:05.301Z,9.00
2022-12-11T12:36:13.907Z,8.88
2022-12-11T12:41:45.633Z,8.65
2022-12-11T12:46:59.792Z,9.05
2022-12-11T12:52:03.254Z,9.30
2022-12-11T12:57:06.179Z,9.52
2022-12-11T13:02:15.336Z,9.18
2022-12-11T13:07:20.727Z,8.27
2022-12-11T13:12:31.281Z,9.02
2022-12-11T13:17:38.220Z,17.40
2022-12-11T13:22:51.818Z,10.25
2022-12-11T13:28:04.631Z,8.73
2022-12-11T13:38:18.709Z,9.93
2022-12-11T13:43:26.649Z,9.90
2022-12-11T13:48:34.029Z,8.30
2022-12-11T13:53:36.828Z,9.70
2022-12-11T13:58:40.086Z,9.07
2022-12-11T14:03:55.036Z,8.85
2022-12-11T14:09:00.277Z,8.90
2022-12-11T14:14:04.727Z,9.10
2022-12-11T14:19:08.675Z,8.73
2022-12-11T14:24:13.035Z,9.27
2022-12-11T14:29:26.340Z,9.10
2022-12-11T14:34:43.928Z,9.25
2022-12-11T14:39:46.498Z,10.02
2022-12-11T14:44:53.801Z,11.00
2022-12-11T14:49:56.574Z,9.45
2022-12-11T14:55:06.189Z,10.02
2022-12-11T15:00:09.380Z,9.68
2022-12-11T15:05:14.456Z,9.77
2022-12-11T15:10:43.465Z,10.32
2022-12-11T15:15:47.502Z,10.00
2022-12-11T15:20:51.695Z,9.85
2022-12-11T15:25:55.884Z,10.13
2022-12-11T15:31:00.343Z,10.18
2022-12-11T15:36:06.702Z,10.98
2022-12-11T15:41:16.760Z,10.20
2022-12-11T15:46:19.750Z,9.55
2022-12-11T15:51:23.350Z,10.75
2022-12-11T15:56:26.360Z,10.15
2022-12-11T16:01:29.017Z,11.10
2022-12-11T16:06:31.929Z,11.40
2022-12-11T16:11:34.705Z,10.35
2022-12-11T16:16:37.444Z,11.65
2022-12-11T16:21:40.290Z,22.08
2022-12-11T16:26:43.198Z,18.85
2022-12-11T16:31:45.890Z,10.85
2022-12-11T16:36:48.651Z,10.48
2022-12-11T16:41:51.499Z,11.75
2022-12-11T16:46:54.864Z,10.00
2022-12-11T16:51:57.650Z,12.00
2022-12-11T16:57:00.241Z,11.13
2022-12-11T17:02:02.833Z,10.18
2022-12-11T17:07:05.869Z,11.02
2022-12-11T17:12:09.047Z,10.48
2022-12-11T17:17:11.900Z,10.95
2022-12-11T17:22:14.622Z,11.13
2022-12-11T17:27:17.452Z,12.38
2022-12-11T17:32:20.347Z,11.13
2022-12-11T17:37:23.307Z,12.57
2022-12-11T17:42:29.174Z,12.18
2022-12-11T17:47:32.484Z,12.00
2022-12-11T17:52:38.467Z,10.95
2022-12-11T17:57:45.602Z,12.90
2022-12-11T18:02:49.882Z,11.35
2022-12-11T18:07:57.494Z,12.10
2022-12-11T18:13:01.138Z,11.77
2022-12-11T18:18:04.344Z,12.30
2022-12-11T18:23:07.416Z,11.55
2022-12-11T18:28:10.535Z,11.07
2022-12-11T18:33:13.840Z,11.75
2022-12-11T18:38:16.560Z,12.38
2022-12-11T18:43:19.195Z,11.75
2022-12-11T18:48:21.951Z,12.68
2022-12-11T18:53:24.658Z,13.32
2022-12-11T18:58:27.593Z,11.43
2022-12-11T19:03:31.696Z,11.57
2022-12-11T19:08:36.131Z,11.93
2022-12-11T19:13:39.270Z,12.93
2022-12-11T19:18:42.817Z,13.23
2022-12-11T19:23:46.781Z,12.68
2022-12-11T19:28:52.338Z,13.38
2022-12-11T19:33:55.689Z,12.50
2022-12-11T19:39:01.955Z,13.13
2022-12-11T19:44:05.791Z,13.15
2022-12-11T19:49:11.348Z,12.52
2022-12-11T19:54:15.259Z,12.75
2022-12-11T19:59:18.357Z,12.43
2022-12-11T20:04:21.208Z,12.18
2022-12-11T20:09:24.684Z,11.48
2022-12-11T20:14:27.620Z,12.85
2022-12-11T20:19:30.726Z,11.70
2022-12-11T20:24:33.637Z,11.68
2022-12-11T20:29:37.728Z,12.20
2022-12-11T20:34:40.586Z,11.77
2022-12-11T20:39:43.443Z,11.10
2022-12-11T20:44:49.224Z,12.88
2022-12-11T20:49:52.614Z,12.43
2022-12-11T20:54:55.489Z,12.30
2022-12-11T20:59:58.333Z,11.88
2022-12-11T21:05:01.228Z,13.02
2022-12-11T21:10:03.976Z,11.93
2022-12-11T21:15:07.386Z,12.88
2022-12-11T21:20:10.289Z,12.18
2022-12-11T21:25:13.689Z,12.10
2022-12-11T21:30:16.798Z,11.68
2022-12-11T21:35:19.459Z,13.43
2022-12-11T21:40:22.663Z,13.85
2022-12-11T21:45:59.272Z,12.77
2022-12-11T21:50:48.588Z,15.13
2022-12-11T21:55:51.426Z,13.57
2022-12-11T22:00:54.365Z,14.10
2022-12-11T22:05:57.114Z,13.77
2022-12-11T22:11:01.415Z,14.68
2022-12-11T22:16:04.070Z,14.55
2022-12-11T22:21:06.778Z,13.25
2022-12-11T22:26:10.000Z,14.05
2022-12-11T22:31:13.552Z,14.13
2022-12-11T22:36:18.213Z,14.20
2022-12-11T22:41:22.538Z,13.77
2022-12-11T22:46:26.872Z,13.85
2022-12-11T22:51:29.566Z,14.23
2022-12-11T22:56:32.329Z,14.30
2022-12-11T23:01:35.262Z,14.00
2022-12-11T23:06:38.106Z,13.88
2022-12-11T23:11:41.387Z,14.88
2022-12-11T23:16:44.299Z,14.75
2022-12-11T23:21:47.156Z,15.70
2022-12-11T23:26:49.900Z,17.88
2022-12-11T23:31:52.715Z,17.90
2022-12-11T23:36:55.407Z,14.93
2022-12-11T23:41:57.948Z,16.88
2022-12-11T23:47:00.777Z,17.63
2022-12-11T23:52:03.826Z,18.05
2022-12-11T23:57:06.515Z,16.77
